Time;durP1;ratioP1;P1;durP2;ratioP2;P2;SDS_P1;SDS_P2;PMS_P1;PMS_P2;Temp;Humidity;BMP_temperature;BMP_pressure;BME280_temperature;BME280_humidity;BME280_pressure;Samples;Min_cycle;Max_cycle;Signal;HPM_P1;HPM_P2
2021/03/29 00:00:36;;;;;;;80.73;60.87;;;23.20;99.80;;;;;;5079581;28;20454;-56
2021/03/29 00:03:04;;;;;;;76.53;57.50;;;23.10;99.70;;;;;;5098371;28;20507;-55
2021/03/29 00:05:32;;;;;;;77.20;57.53;;;23.20;99.80;;;;;;5093734;28;20470;-56
2021/03/29 00:08:05;;;;;;;82.00;59.93;;;23.20;99.80;;;;;;5079360;28;20449;-57
2021/03/29 00:10:32;;;;;;;74.57;59.17;;;23.20;99.70;;;;;;5097397;28;20462;-57
2021/03/29 00:13:01;;;;;;;75.07;57.17;;;23.20;99.70;;;;;;5097993;28;20501;-56
2021/03/29 00:15:31;;;;;;;76.50;58.07;;;23.20;99.70;;;;;;5080522;28;21034;-55
2021/03/29 00:17:59;;;;;;;73.53;57.60;;;23.20;99.70;;;;;;5078021;28;20458;-56
2021/03/29 00:20:29;;;;;;;74.60;56.90;;;23.20;99.70;;;;;;5078053;28;20505;-57
2021/03/29 00:22:57;;;;;;;75.53;58.07;;;23.20;99.60;;;;;;5061347;28;20478;-57
2021/03/29 00:25:24;;;;;;;73.27;56.00;;;23.20;99.60;;;;;;5078056;28;20513;-56
2021/03/29 00:27:55;;;;;;;70.83;57.27;;;23.20;99.60;;;;;;5078294;28;20884;-54
2021/03/29 00:30:26;;;;;;;72.03;56.70;;;23.20;99.60;;;;;;5078870;28;20454;-57
2021/03/29 00:32:53;;;;;;;78.20;57.53;;;23.20;99.50;;;;;;5060971;28;20501;-56
2021/03/29 00:35:23;;;;;;;71.33;55.57;;;23.20;99.50;;;;;;5077730;28;20533;-56
2021/03/29 00:37:51;;;;;;;74.63;55.67;;;23.20;99.50;;;;;;5078742;28;20453;-56
2021/03/29 00:40:19;;;;;;;67.83;54.40;;;23.20;99.50;;;;;;5077844;28;20447;-57
2021/03/29 00:42:48;;;;;;;78.20;58.40;;;23.20;99.40;;;;;;5077974;28;20447;-57
2021/03/29 00:45:18;;;;;;;73.60;55.53;;;23.20;99.40;;;;;;5073606;28;20457;-54
2021/03/29 00:47:46;;;;;;;71.47;55.87;;;23.20;99.40;;;;;;5077280;28;20459;-53
2021/03/29 00:50:15;;;;;;;63.87;55.60;;;23.20;99.40;;;;;;5060029;28;20450;-53
2021/03/29 00:52:44;;;;;;;73.83;55.77;;;23.20;99.40;;;;;;5078513;28;20559;-55
2021/03/29 00:55:12;;;;;;;70.13;53.73;;;23.30;99.40;;;;;;5079819;28;20454;-54
2021/03/29 00:57:41;;;;;;;70.10;53.90;;;23.20;99.30;;;;;;5077850;28;20520;-56
2021/03/29 01:00:16;;;;;;;69.87;52.97;;;23.20;99.30;;;;;;5077115;28;20461;-57
2021/03/29 01:02:43;;;;;;;69.00;52.90;;;23.20;99.30;;;;;;5077199;28;20570;-56
2021/03/29 01:05:15;;;;;;;70.03;56.27;;;23.30;99.30;;;;;;5076923;28;20776;-56
2021/03/29 01:07:45;;;;;;;71.17;54.43;;;23.30;99.30;;;;;;5077399;28;20461;-57
2021/03/29 01:10:13;;;;;;;70.47;54.17;;;23.30;99.20;;;;;;5083394;28;20469;-54
2021/03/29 01:12:42;;;;;;;64.03;52.70;;;23.30;99.20;;;;;;5081847;28;20939;-56
2021/03/29 01:15:13;;;;;;;67.73;54.03;;;23.30;99.20;;;;;;5098390;28;20480;-55
2021/03/29 01:17:44;;;;;;;68.10;53.30;;;23.30;99.20;;;;;;5098690;28;20450;-57
2021/03/29 01:20:28;;;;;;;66.60;53.17;;;23.30;99.10;;;;;;5094040;28;20489;-56
2021/03/29 01:22:58;;;;;;;63.33;51.37;;;23.30;99.10;;;;;;5076744;28;20454;-56
2021/03/29 01:25:28;;;;;;;67.83;53.53;;;23.30;99.10;;;;;;5078117;28;20771;-57
2021/03/29 01:28:02;;;;;;;65.97;52.20;;;23.30;99.00;;;;;;5077876;28;20557;-55
2021/03/29 01:30:31;;;;;;;69.47;52.17;;;23.30;99.00;;;;;;5077013;28;20454;-57
2021/03/29 01:33:01;;;;;;;62.30;50.83;;;23.30;99.00;;;;;;5094835;28;20486;-56
2021/03/29 01:35:30;;;;;;;62.87;51.13;;;23.30;99.00;;;;;;5078209;28;20456;-57
2021/03/29 01:37:58;;;;;;;62.20;50.87;;;23.30;99.00;;;;;;5097809;27;21227;-57
2021/03/29 01:40:27;;;;;;;61.20;50.03;;;23.30;98.90;;;;;;5138461;27;20859;-56
2021/03/29 01:42:57;;;;;;;67.47;51.70;;;23.30;98.90;;;;;;5118689;28;20441;-57
2021/03/29 01:45:27;;;;;;;63.13;50.87;;;23.30;98.90;;;;;;5117239;28;20883;-57
2021/03/29 01:47:56;;;;;;;60.60;49.57;;;23.30;98.90;;;;;;5117115;28;20523;-56
2021/03/29 01:50:29;;;;;;;61.00;51.20;;;23.40;98.90;;;;;;5117341;28;20845;-56
2021/03/29 01:52:57;;;;;;;63.07;51.03;;;23.30;98.80;;;;;;5116631;28;20554;-56
2021/03/29 01:55:27;;;;;;;59.40;48.60;;;23.40;98.80;;;;;;5116876;28;20441;-56
2021/03/29 01:57:53;;;;;;;60.90;48.80;;;23.40;98.80;;;;;;5117588;28;20915;-54
2021/03/29 02:00:26;;;;;;;62.17;49.43;;;23.40;98.80;;;;;;5117740;27;20461;-57
2021/03/29 02:02:54;;;;;;;61.80;50.30;;;23.40;98.80;;;;;;5117505;28;20740;-57
2021/03/29 02:05:22;;;;;;;58.33;48.97;;;23.40;98.70;;;;;;5117940;28;20456;-56
2021/03/29 02:07:52;;;;;;;59.10;49.13;;;23.40;98.70;;;;;;5117047;28;20453;-56
2021/03/29 02:10:22;;;;;;;60.90;48.33;;;23.40;98.70;;;;;;5117186;28;20517;-57
2021/03/29 02:12:52;;;;;;;56.00;47.00;;;23.40;98.70;;;;;;5135007;27;20879;-56
2021/03/29 02:15:22;;;;;;;59.33;50.30;;;23.40;98.70;;;;;;5137380;27;20478;-56
2021/03/29 02:17:54;;;;;;;60.67;50.77;;;23.40;98.70;;;;;;5138384;27;20834;-57
2021/03/29 02:20:24;;;;;;;58.00;48.33;;;23.40;98.60;;;;;;5116149;28;20535;-58
2021/03/29 02:22:53;;;;;;;60.13;52.63;;;23.40;98.60;;;;;;5118508;28;20454;-56
2021/03/29 02:25:23;;;;;;;60.40;48.23;;;23.40;98.60;;;;;;5103935;28;20649;-57
2021/03/29 02:27:53;;;;;;;53.07;47.07;;;23.40;98.60;;;;;;5097438;28;20515;-56
2021/03/29 02:30:25;;;;;;;60.10;49.87;;;23.40;98.90;;;;;;5075554;28;20556;-57
2021/03/29 02:32:54;;;;;;;52.70;45.73;;;23.40;98.50;;;;;;5076262;28;20485;-58
2021/03/29 02:35:24;;;;;;;56.43;46.50;;;23.40;98.50;;;;;;5076079;28;22341;-56
2021/03/29 02:37:56;;;;;;;59.33;47.97;;;23.40;98.50;;;;;;5076348;28;20456;-57
2021/03/29 02:40:24;;;;;;;51.43;45.70;;;23.40;98.50;;;;;;5075021;28;20901;-57
2021/03/29 02:42:54;;;;;;;56.90;47.97;;;23.40;98.40;;;;;;5076432;28;20578;-57
2021/03/29 02:45:25;;;;;;;54.67;48.57;;;23.40;98.40;;;;;;5075104;28;20944;-56
2021/03/29 02:47:55;;;;;;;59.40;49.50;;;23.40;98.40;;;;;;5076599;28;20458;-54
2021/03/29 02:50:24;;;;;;;57.63;46.07;;;23.40;98.40;;;;;;5093929;28;20562;-58
2021/03/29 02:52:54;;;;;;;57.43;48.27;;;23.40;98.40;;;;;;5115742;28;20930;-57
2021/03/29 02:55:22;;;;;;;54.53;46.30;;;23.40;98.30;;;;;;5099544;28;20477;-58
2021/03/29 02:57:52;;;;;;;56.77;47.50;;;23.40;98.30;;;;;;5117736;28;20456;-55
2021/03/29 03:00:22;;;;;;;60.20;46.20;;;23.40;98.30;;;;;;5100562;28;20883;-57
2021/03/29 03:02:53;;;;;;;55.83;47.17;;;23.50;98.30;;;;;;5111761;28;21055;-57
2021/03/29 03:05:20;;;;;;;52.47;45.97;;;23.40;98.30;;;;;;5109651;28;20520;-56
2021/03/29 03:07:50;;;;;;;56.50;46.40;;;23.40;98.20;;;;;;5099611;28;20450;-57
2021/03/29 03:10:17;;;;;;;58.57;45.93;;;23.50;98.20;;;;;;5100257;28;20634;-58
2021/03/29 03:12:45;;;;;;;54.40;45.67;;;23.40;98.20;;;;;;5109972;28;20515;-56
2021/03/29 03:15:16;;;;;;;52.40;45.90;;;23.40;98.20;;;;;;5104972;28;20517;-57
2021/03/29 03:17:44;;;;;;;56.07;45.83;;;23.50;98.20;;;;;;5083965;28;20462;-57
2021/03/29 03:20:13;;;;;;;53.43;45.77;;;23.50;98.20;;;;;;5079107;28;20885;-56
2021/03/29 03:22:52;;;;;;;52.13;45.10;;;23.50;98.20;;;;;;5089666;28;20458;-58
2021/03/29 03:25:22;;;;;;;51.03;45.50;;;23.50;98.20;;;;;;5098947;28;20544;-57
2021/03/29 03:28:05;;;;;;;55.30;46.00;;;23.50;98.10;;;;;;5099231;28;20555;-57
2021/03/29 03:30:38;;;;;;;52.77;45.50;;;23.50;98.10;;;;;;5092725;28;20527;-58
2021/03/29 03:33:07;;;;;;;53.90;46.70;;;23.50;98.10;;;;;;5078645;28;20483;-57
2021/03/29 03:35:36;;;;;;;53.07;45.60;;;23.50;98.00;;;;;;5078724;28;20453;-57
2021/03/29 03:38:10;;;;;;;52.73;44.80;;;23.50;98.00;;;;;;5077191;28;20466;-55
2021/03/29 03:40:39;;;;;;;48.93;43.07;;;23.50;98.00;;;;;;5077234;28;20750;-57
2021/03/29 03:43:08;;;;;;;50.90;44.07;;;23.50;98.00;;;;;;5077476;28;20448;-57
2021/03/29 03:45:39;;;;;;;52.67;44.60;;;23.50;98.30;;;;;;5077474;28;20466;-54
2021/03/29 03:48:09;;;;;;;50.30;44.90;;;23.50;98.00;;;;;;5076437;28;20469;-57
2021/03/29 03:50:37;;;;;;;50.73;45.03;;;23.50;97.90;;;;;;5075646;28;20451;-57
2021/03/29 03:55:48;;;;;;;49.80;44.40;;;23.50;97.80;;;;;;5078557;28;20442;-55
2021/03/29 03:58:17;;;;;;;52.20;46.33;;;23.50;97.80;;;;;;5077715;28;20463;-57
2021/03/29 04:00:44;;;;;;;52.30;45.00;;;23.60;97.80;;;;;;5076571;28;20538;-56
2021/03/29 04:03:14;;;;;;;48.57;43.50;;;23.60;97.80;;;;;;5106279;28;20497;-56
2021/03/29 04:05:43;;;;;;;52.23;45.63;;;23.60;97.80;;;;;;5097621;28;20461;-58
2021/03/29 04:08:11;;;;;;;49.63;44.17;;;23.60;97.80;;;;;;5096905;28;20847;-55
2021/03/29 04:10:43;;;;;;;50.77;44.73;;;23.60;97.70;;;;;;5097088;28;20758;-57
2021/03/29 04:13:14;;;;;;;46.37;41.43;;;23.60;97.70;;;;;;5096470;28;20481;-56
2021/03/29 04:15:42;;;;;;;47.40;42.43;;;23.60;97.60;;;;;;5097338;28;20453;-57
2021/03/29 04:18:08;;;;;;;48.77;43.40;;;23.60;97.60;;;;;;5096085;28;20462;-57
2021/03/29 04:20:36;;;;;;;49.57;44.03;;;23.60;97.60;;;;;;5096929;28;20472;-57
2021/03/29 04:23:04;;;;;;;50.57;44.77;;;23.60;97.50;;;;;;5095616;28;21224;-56
2021/03/29 04:25:31;;;;;;;49.83;42.93;;;23.60;97.50;;;;;;5093057;28;20754;-57
2021/03/29 04:27:57;;;;;;;48.97;43.67;;;23.60;97.40;;;;;;5099111;28;21052;-56
2021/03/29 04:30:25;;;;;;;54.90;45.03;;;23.70;97.40;;;;;;5114498;28;20478;-58
2021/03/29 04:32:52;;;;;;;51.37;44.17;;;23.70;97.40;;;;;;5095371;28;20478;-57
2021/03/29 04:35:22;;;;;;;46.20;41.50;;;23.70;97.40;;;;;;5096674;28;20461;-57
2021/03/29 04:37:49;;;;;;;49.00;43.90;;;23.70;97.30;;;;;;5095340;28;20484;-58
2021/03/29 04:40:18;;;;;;;48.30;43.17;;;23.70;97.30;;;;;;5111648;28;21025;-57
2021/03/29 04:42:44;;;;;;;48.40;42.73;;;23.70;97.30;;;;;;5113161;28;20454;-56
2021/03/29 04:45:13;;;;;;;46.70;42.00;;;23.70;97.30;;;;;;5095233;28;20540;-57
2021/03/29 04:47:40;;;;;;;46.90;41.80;;;23.70;97.20;;;;;;5094788;28;20551;-57
2021/03/29 04:50:08;;;;;;;47.07;42.03;;;23.80;97.20;;;;;;5112012;28;20549;-58
2021/03/29 04:52:36;;;;;;;48.33;43.53;;;23.80;97.20;;;;;;5093780;28;20587;-58
2021/03/29 04:55:04;;;;;;;45.23;40.50;;;23.80;97.10;;;;;;5112823;28;20479;-58
2021/03/29 04:57:31;;;;;;;47.30;42.40;;;23.80;97.10;;;;;;5113465;28;20490;-58
2021/03/29 04:59:58;;;;;;;42.37;37.97;;;23.80;97.10;;;;;;5091402;28;21124;-57
2021/03/29 05:02:25;;;;;;;49.00;42.33;;;23.80;97.10;;;;;;5089276;28;20577;-57
2021/03/29 05:04:51;;;;;;;45.93;41.43;;;23.80;97.00;;;;;;5090895;28;20479;-57
2021/03/29 05:07:18;;;;;;;47.40;42.70;;;23.80;97.00;;;;;;5091231;28;20498;-56
2021/03/29 05:09:45;;;;;;;46.23;41.33;;;23.80;96.90;;;;;;5090282;28;20477;-57
2021/03/29 05:12:13;;;;;;;46.63;41.90;;;23.80;96.90;;;;;;5090997;28;20970;-58
2021/03/29 05:14:41;;;;;;;45.60;40.87;;;23.80;96.90;;;;;;5091793;28;20592;-56
2021/03/29 05:17:08;;;;;;;45.30;40.50;;;23.80;96.90;;;;;;5088436;28;20462;-57
2021/03/29 05:19:35;;;;;;;43.90;39.30;;;23.80;96.90;;;;;;5089706;28;20586;-57
2021/03/29 05:22:04;;;;;;;47.10;42.07;;;23.80;96.90;;;;;;5095729;28;20456;-58
2021/03/29 05:24:31;;;;;;;43.57;39.10;;;23.80;96.80;;;;;;5097418;28;20459;-57
2021/03/29 05:26:58;;;;;;;42.47;38.03;;;23.90;96.80;;;;;;5090349;28;20528;-57
2021/03/29 05:29:27;;;;;;;45.43;40.77;;;23.90;96.80;;;;;;5087690;28;20461;-57
2021/03/29 05:31:56;;;;;;;42.30;38.10;;;23.90;96.80;;;;;;5088857;28;20750;-57
2021/03/29 05:34:24;;;;;;;43.57;39.17;;;23.90;96.70;;;;;;5087738;28;20490;-58
2021/03/29 05:36:50;;;;;;;44.30;39.60;;;23.90;96.70;;;;;;5085643;28;20446;-57
2021/03/29 05:39:17;;;;;;;43.77;39.17;;;23.90;96.70;;;;;;5083915;28;20462;-57
2021/03/29 05:41:44;;;;;;;45.20;40.40;;;23.90;96.70;;;;;;5086217;28;20901;-56
2021/03/29 05:44:11;;;;;;;44.70;39.97;;;23.90;96.60;;;;;;5087758;28;20480;-57
2021/03/29 05:46:38;;;;;;;44.50;39.37;;;23.90;96.60;;;;;;5086851;28;20452;-55
2021/03/29 05:49:07;;;;;;;44.57;40.10;;;23.90;96.60;;;;;;5086800;28;20461;-57
2021/03/29 05:51:36;;;;;;;42.23;37.97;;;23.90;96.60;;;;;;5086667;28;20449;-55
2021/03/29 05:54:03;;;;;;;42.47;37.93;;;23.90;96.60;;;;;;5079017;28;20609;-52
2021/03/29 05:56:31;;;;;;;42.30;37.97;;;23.90;96.50;;;;;;5068136;28;20864;-52
2021/03/29 05:59:08;;;;;;;18.97;17.60;;;23.90;96.50;;;;;;5071183;28;20458;-55
2021/03/29 06:01:42;;;;;;;20.67;19.07;;;23.80;74.80;;;;;;5093413;28;20630;-57
2021/03/29 06:04:11;;;;;;;24.93;22.53;;;23.40;66.30;;;;;;5093205;28;20469;-58
2021/03/29 06:06:38;;;;;;;27.90;25.13;;;23.40;78.30;;;;;;5086992;28;21161;-59
2021/03/29 06:09:05;;;;;;;27.67;25.23;;;23.40;85.70;;;;;;5071079;28;20980;-59
2021/03/29 06:11:34;;;;;;;28.17;25.27;;;23.50;88.90;;;;;;5071446;28;21216;-59
2021/03/29 06:14:12;;;;;;;28.37;25.67;;;23.50;90.10;;;;;;5086997;28;20556;-60
2021/03/29 06:16:59;;;;;;;27.60;24.57;;;23.60;90.50;;;;;;5073616;28;20441;-59
2021/03/29 06:19:52;;;;;;;26.80;24.40;;;23.60;90.80;;;;;;5086775;28;20522;-58
2021/03/29 06:22:24;;;;;;;25.80;23.40;;;23.60;90.90;;;;;;5076061;28;20522;-58
2021/03/29 06:25:07;;;;;;;27.27;24.87;;;23.70;91.00;;;;;;5069109;28;21033;-59
2021/03/29 06:27:40;;;;;;;28.07;25.13;;;23.70;91.10;;;;;;5072419;28;20467;-60
2021/03/29 06:30:24;;;;;;;25.43;23.20;;;23.80;91.20;;;;;;5072523;28;20456;-57
2021/03/29 06:33:06;;;;;;;26.90;24.40;;;23.80;91.30;;;;;;5069559;28;20902;-59
2021/03/29 06:35:38;;;;;;;27.50;24.90;;;23.80;91.30;;;;;;5083814;28;20465;-57
2021/03/29 06:38:07;;;;;;;25.87;23.47;;;23.80;91.40;;;;;;5090890;28;20483;-59
2021/03/29 06:40:34;;;;;;;26.73;24.37;;;23.80;91.40;;;;;;5087632;28;20550;-58
2021/03/29 06:43:14;;;;;;;29.30;26.60;;;23.90;91.60;;;;;;5071991;28;20503;-59
2021/03/29 06:45:41;;;;;;;27.87;25.27;;;23.90;91.70;;;;;;5059034;28;20521;-59
2021/03/29 06:48:17;;;;;;;26.53;24.07;;;23.90;91.70;;;;;;5072950;28;20464;-58
2021/03/29 06:50:44;;;;;;;27.97;25.43;;;23.90;91.80;;;;;;5069213;28;20551;-59
2021/03/29 06:53:24;;;;;;;27.23;24.73;;;23.90;91.90;;;;;;5085506;28;20462;-58
2021/03/29 06:55:56;;;;;;;26.23;24.00;;;23.90;91.90;;;;;;5072179;28;20467;-57
2021/03/29 06:58:25;;;;;;;27.60;24.87;;;23.90;91.90;;;;;;5069035;28;20643;-55
2021/03/29 07:00:55;;;;;;;25.77;23.67;;;23.90;92.00;;;;;;5080623;28;20469;-56
2021/03/29 07:03:22;;;;;;;25.87;23.57;;;23.90;92.00;;;;;;5087243;28;20484;-53
2021/03/29 07:05:50;;;;;;;27.73;23.27;;;23.90;92.10;;;;;;5068734;28;20456;-54
2021/03/29 07:08:17;;;;;;;26.53;24.00;;;24.00;92.20;;;;;;5068351;28;20475;-53
2021/03/29 07:10:44;;;;;;;25.57;23.43;;;24.00;92.20;;;;;;5068431;28;20553;-53
2021/03/29 07:13:13;;;;;;;25.90;23.40;;;24.00;92.30;;;;;;5069799;28;20584;-55
2021/03/29 07:15:41;;;;;;;25.03;22.40;;;24.00;92.30;;;;;;5069451;28;20889;-53
2021/03/29 07:18:08;;;;;;;26.40;23.73;;;24.00;92.30;;;;;;5085874;28;20819;-56
2021/03/29 07:20:36;;;;;;;25.80;23.60;;;24.00;92.30;;;;;;5067329;28;20867;-54
2021/03/29 07:23:03;;;;;;;25.43;23.13;;;24.00;92.30;;;;;;5044469;28;20534;-53
2021/03/29 07:25:32;;;;;;;25.40;23.20;;;24.00;92.40;;;;;;5066351;28;20433;-56
2021/03/29 07:28:00;;;;;;;25.17;23.07;;;24.00;92.40;;;;;;5069160;28;20474;-56
2021/03/29 07:30:47;;;;;;;24.90;22.60;;;24.00;92.50;;;;;;5065164;28;20464;-55
2021/03/29 07:33:15;;;;;;;25.90;23.50;;;24.00;92.50;;;;;;5078413;28;20578;-54
2021/03/29 07:35:48;;;;;;;24.73;22.53;;;24.00;92.50;;;;;;5065450;28;20483;-56
2021/03/29 07:38:16;;;;;;;24.17;22.00;;;24.00;92.60;;;;;;5071223;28;21116;-53
2021/03/29 07:40:49;;;;;;;24.37;22.27;;;24.00;92.60;;;;;;5065437;28;20508;-55
2021/03/29 07:43:19;;;;;;;26.40;23.80;;;24.00;92.60;;;;;;5057129;28;20462;-57
2021/03/29 07:45:53;;;;;;;24.50;22.30;;;24.00;92.70;;;;;;5072649;28;20524;-57
2021/03/29 07:48:34;;;;;;;24.27;21.97;;;24.00;92.80;;;;;;5069563;28;20474;-56
2021/03/29 07:51:01;;;;;;;23.00;21.20;;;24.00;92.90;;;;;;5070251;28;20490;-56
2021/03/29 07:53:43;;;;;;;23.77;21.57;;;24.00;92.90;;;;;;5057039;28;20578;-55
2021/03/29 07:56:11;;;;;;;23.40;21.47;;;24.00;93.00;;;;;;5071532;28;20529;-54
2021/03/29 07:58:46;;;;;;;24.53;22.43;;;23.90;93.00;;;;;;5071709;28;20446;-54
2021/03/29 08:01:14;;;;;;;23.17;21.20;;;23.90;93.10;;;;;;5069784;28;20449;-55
2021/03/29 08:03:44;;;;;;;24.17;21.87;;;23.90;93.10;;;;;;5076884;28;20804;-54
2021/03/29 08:06:40;;;;;;;22.80;20.70;;;23.90;93.10;;;;;;5082136;28;20464;-54
2021/03/29 08:09:10;;;;;;;24.57;22.27;;;23.90;93.10;;;;;;5082748;28;20574;-55
2021/03/29 08:11:54;;;;;;;21.90;20.10;;;23.90;93.10;;;;;;5074960;28;20537;-54
2021/03/29 08:14:42;;;;;;;22.23;20.23;;;23.90;93.10;;;;;;5059757;28;20476;-53
2021/03/29 08:17:37;;;;;;;23.17;21.23;;;23.90;93.10;;;;;;5055679;28;20460;-53
2021/03/29 08:20:22;;;;;;;22.00;20.40;;;23.90;93.20;;;;;;5073691;28;20449;-55
2021/03/29 08:23:30;;;;;;;23.00;20.60;;;23.90;93.10;;;;;;5053091;28;20460;-53
2021/03/29 08:26:20;;;;;;;21.10;19.30;;;23.90;93.10;;;;;;5044687;28;20519;-54
2021/03/29 08:29:12;;;;;;;21.57;19.60;;;23.90;93.10;;;;;;5053890;28;20631;-55
2021/03/29 08:32:08;;;;;;;22.70;20.70;;;23.80;93.10;;;;;;5061647;28;20453;-54
2021/03/29 08:34:37;;;;;;;22.70;20.50;;;23.80;93.10;;;;;;5068274;28;20488;-53
2021/03/29 08:37:07;;;;;;;22.00;20.30;;;23.80;93.10;;;;;;5066558;28;20539;-51
2021/03/29 08:39:37;;;;;;;20.40;18.90;;;23.80;93.20;;;;;;5060740;28;20985;-52
2021/03/29 08:42:06;;;;;;;21.50;19.70;;;23.80;93.20;;;;;;5055682;28;20609;-53
2021/03/29 08:44:36;;;;;;;21.00;19.20;;;23.80;93.20;;;;;;5058987;28;20543;-57
2021/03/29 08:47:08;;;;;;;21.63;19.77;;;23.80;93.20;;;;;;5070055;28;20453;-53
2021/03/29 08:49:36;;;;;;;19.03;17.10;;;23.80;93.30;;;;;;5061130;28;20437;-55
2021/03/29 08:52:04;;;;;;;18.57;17.13;;;23.90;93.40;;;;;;5057675;28;20539;-55
2021/03/29 08:54:31;;;;;;;17.77;16.37;;;23.90;92.90;;;;;;5065153;28;20517;-56
2021/03/29 08:57:04;;;;;;;17.57;16.17;;;24.00;92.50;;;;;;5064895;28;21129;-55
2021/03/29 08:59:32;;;;;;;17.87;16.40;;;24.00;92.10;;;;;;5078776;28;20723;-51
2021/03/29 09:01:59;;;;;;;16.60;15.40;;;23.90;91.70;;;;;;5072621;28;20482;-52
2021/03/29 09:04:26;;;;;;;18.10;16.30;;;23.90;91.30;;;;;;5074340;28;20491;-51
2021/03/29 09:06:54;;;;;;;16.93;15.77;;;23.90;91.30;;;;;;5053796;28;20782;-51
2021/03/29 09:09:23;;;;;;;15.97;14.73;;;23.90;91.00;;;;;;5058034;28;20543;-55
2021/03/29 09:11:52;;;;;;;16.37;14.87;;;23.90;90.40;;;;;;5060730;28;20465;-54
2021/03/29 09:14:23;;;;;;;15.63;14.73;;;23.90;90.10;;;;;;5061751;28;20741;-52
2021/03/29 09:16:57;;;;;;;15.03;13.97;;;23.80;89.60;;;;;;5065175;28;20534;-53
2021/03/29 09:19:24;;;;;;;13.87;12.87;;;23.80;89.50;;;;;;5088602;28;20455;-53
2021/03/29 09:21:56;;;;;;;15.17;14.23;;;23.80;89.50;;;;;;5096534;28;20439;-52
2021/03/29 09:24:25;;;;;;;15.20;14.10;;;23.70;89.50;;;;;;5096128;28;20459;-54
2021/03/29 09:27:00;;;;;;;14.00;12.90;;;23.70;89.70;;;;;;5088520;28;20894;-58
2021/03/29 09:29:33;;;;;;;14.77;13.47;;;23.70;90.00;;;;;;5073335;28;20461;-53
2021/03/29 09:32:02;;;;;;;14.33;13.23;;;23.70;90.60;;;;;;5069342;28;20557;-51
2021/03/29 09:34:29;;;;;;;13.93;13.13;;;23.70;91.70;;;;;;5073969;28;20469;-51
2021/03/29 09:36:56;;;;;;;14.93;13.60;;;23.70;92.10;;;;;;5072111;28;20442;-53
2021/03/29 09:39:30;;;;;;;14.07;12.90;;;23.70;92.20;;;;;;5075008;28;20690;-55
2021/03/29 09:41:59;;;;;;;13.53;12.50;;;23.70;92.20;;;;;;5068164;28;20439;-52
2021/03/29 09:44:29;;;;;;;14.00;13.00;;;23.70;92.30;;;;;;5081333;28;20438;-51
2021/03/29 09:46:58;;;;;;;13.90;12.80;;;23.70;92.50;;;;;;5077142;28;20459;-53
2021/03/29 09:49:26;;;;;;;14.00;13.20;;;23.70;92.40;;;;;;5075374;28;20460;-55
2021/03/29 09:52:02;;;;;;;14.20;13.30;;;23.70;92.50;;;;;;5091524;27;20447;-53
2021/03/29 09:54:32;;;;;;;13.80;12.70;;;23.60;92.50;;;;;;5072268;28;20580;-54
2021/03/29 09:57:12;;;;;;;13.93;12.93;;;23.70;92.60;;;;;;5085244;28;20450;-54
2021/03/29 09:59:41;;;;;;;14.07;12.93;;;23.70;92.60;;;;;;5090042;28;20441;-55
2021/03/29 10:02:16;;;;;;;15.10;13.90;;;23.60;92.70;;;;;;5074314;28;20492;-54
2021/03/29 10:04:45;;;;;;;13.67;12.50;;;23.60;92.80;;;;;;5088451;28;20477;-54
2021/03/29 10:07:15;;;;;;;15.10;13.87;;;23.60;92.80;;;;;;5094697;27;20471;-54
2021/03/29 10:09:46;;;;;;;14.10;13.23;;;23.60;92.80;;;;;;5082700;28;20465;-48
2021/03/29 10:12:25;;;;;;;14.30;13.23;;;23.60;92.80;;;;;;5078906;28;20508;-49
2021/03/29 10:15:05;;;;;;;14.20;13.20;;;23.60;92.90;;;;;;5076738;28;20919;-51
2021/03/29 10:17:35;;;;;;;15.00;13.80;;;23.60;92.90;;;;;;5068729;28;20553;-49
2021/03/29 10:20:06;;;;;;;14.03;13.13;;;23.60;92.90;;;;;;5067146;28;20452;-49
2021/03/29 10:22:35;;;;;;;15.50;14.20;;;23.60;93.00;;;;;;5061083;28;20522;-49
2021/03/29 10:25:10;;;;;;;13.57;12.50;;;23.60;93.00;;;;;;5061705;28;20601;-49
2021/03/29 10:27:40;;;;;;;14.17;13.20;;;23.60;93.10;;;;;;5072298;28;20447;-50
2021/03/29 10:30:10;;;;;;;13.40;12.40;;;23.60;93.10;;;;;;5067773;28;20488;-49
2021/03/29 10:32:38;;;;;;;15.37;13.87;;;23.60;93.10;;;;;;5082303;28;20432;-48
2021/03/29 10:35:06;;;;;;;14.10;13.20;;;23.60;93.20;;;;;;5078936;28;20479;-49
2021/03/29 10:37:34;;;;;;;14.00;13.00;;;23.60;93.20;;;;;;5067500;28;20906;-49
2021/03/29 10:40:03;;;;;;;14.17;13.10;;;23.60;93.20;;;;;;5045905;28;20457;-50
2021/03/29 10:42:34;;;;;;;13.30;12.50;;;23.60;93.20;;;;;;5077914;28;20449;-50
2021/03/29 10:45:03;;;;;;;14.30;13.10;;;23.60;93.30;;;;;;5081508;28;20485;-50
2021/03/29 10:47:31;;;;;;;14.73;13.63;;;23.50;93.30;;;;;;5077527;28;20441;-50
2021/03/29 10:49:58;;;;;;;14.63;13.70;;;23.50;93.30;;;;;;5079641;28;20489;-51
2021/03/29 10:52:25;;;;;;;14.80;13.50;;;23.50;93.30;;;;;;5078209;28;20473;-50
2021/03/29 10:54:54;;;;;;;14.20;13.10;;;23.50;93.40;;;;;;5066011;28;21144;-51
2021/03/29 10:57:22;;;;;;;14.27;12.93;;;23.50;93.50;;;;;;5059886;28;20865;-50
2021/03/29 10:59:57;;;;;;;13.53;12.40;;;23.50;93.50;;;;;;5059631;28;20565;-50
2021/03/29 11:02:25;;;;;;;14.97;13.97;;;23.50;93.60;;;;;;5067163;28;21003;-51
2021/03/29 11:04:53;;;;;;;13.37;12.50;;;23.50;93.60;;;;;;5067644;28;20464;-50
2021/03/29 11:07:22;;;;;;;14.17;12.97;;;23.50;93.70;;;;;;5076527;28;20805;-54
2021/03/29 11:09:49;;;;;;;13.70;12.90;;;23.40;93.60;;;;;;5061115;28;20464;-54
2021/03/29 11:12:21;;;;;;;14.53;13.30;;;23.40;93.70;;;;;;5065097;28;20749;-50
2021/03/29 11:14:48;;;;;;;13.90;13.00;;;23.40;93.70;;;;;;5078864;28;20528;-51
2021/03/29 11:17:14;;;;;;;13.73;12.63;;;23.40;93.80;;;;;;5082633;28;20546;-52
2021/03/29 11:19:41;;;;;;;14.00;12.90;;;23.40;93.80;;;;;;5100004;27;20457;-55
2021/03/29 11:22:08;;;;;;;13.87;12.63;;;23.40;93.90;;;;;;5099526;27;20453;-50
2021/03/29 11:24:34;;;;;;;14.33;13.33;;;23.40;93.90;;;;;;5063424;28;20448;-50
2021/03/29 11:27:01;;;;;;;14.30;13.20;;;23.40;94.00;;;;;;5092323;27;20538;-53
2021/03/29 11:29:29;;;;;;;13.50;12.57;;;23.40;94.00;;;;;;5086812;27;20537;-50
2021/03/29 11:31:56;;;;;;;11.40;10.80;;;23.40;94.00;;;;;;5088394;27;20748;-51
2021/03/29 11:34:22;;;;;;;10.83;10.10;;;23.40;88.10;;;;;;5080444;28;20586;-50
2021/03/29 11:36:49;;;;;;;11.30;10.60;;;23.40;74.20;;;;;;5079857;28;20514;-52
2021/03/29 11:39:16;;;;;;;11.10;10.57;;;23.40;69.80;;;;;;5088839;27;20495;-52
2021/03/29 11:41:43;;;;;;;13.43;12.63;;;23.20;60.50;;;;;;5099078;27;20539;-52
2021/03/29 11:44:10;;;;;;;13.00;12.30;;;23.20;60.50;;;;;;5085881;27;20458;-53
2021/03/29 11:46:40;;;;;;;14.20;13.30;;;23.20;61.80;;;;;;5103545;27;20443;-51
2021/03/29 11:49:06;;;;;;;12.03;11.60;;;23.10;61.20;;;;;;5103679;27;21057;-55
2021/03/29 11:51:33;;;;;;;12.63;12.03;;;23.10;57.50;;;;;;5090749;27;20562;-52
2021/03/29 11:54:00;;;;;;;12.57;12.00;;;23.10;55.80;;;;;;5081324;28;20509;-55
2021/03/29 11:56:27;;;;;;;13.87;12.90;;;23.00;60.00;;;;;;5088164;27;20507;-50
2021/03/29 11:58:54;;;;;;;12.33;11.73;;;23.10;57.90;;;;;;5089493;28;20447;-53
2021/03/29 12:01:33;;;;;;;13.07;12.40;;;23.10;57.50;;;;;;5088162;27;20471;-52
2021/03/29 12:04:03;;;;;;;12.70;12.10;;;23.10;61.80;;;;;;5082845;28;20573;-53
2021/03/29 12:06:34;;;;;;;13.70;12.77;;;23.10;69.20;;;;;;5089265;27;20444;-54
2021/03/29 12:09:10;;;;;;;14.00;13.20;;;23.10;70.20;;;;;;5089055;27;20593;-52
2021/03/29 12:11:58;;;;;;;13.47;12.70;;;23.10;71.80;;;;;;5086925;28;20871;-53
2021/03/29 12:14:26;;;;;;;12.57;11.97;;;23.00;72.40;;;;;;5086331;28;20469;-55
2021/03/29 12:16:54;;;;;;;13.20;12.50;;;23.00;73.30;;;;;;5086857;27;20462;-51
2021/03/29 12:19:20;;;;;;;13.07;12.30;;;23.00;74.30;;;;;;5076501;28;20715;-51
2021/03/29 12:21:50;;;;;;;13.57;12.57;;;23.00;75.90;;;;;;5076811;28;20676;-52
2021/03/29 12:24:21;;;;;;;13.63;12.70;;;23.00;76.10;;;;;;5086600;27;20461;-54
2021/03/29 12:26:49;;;;;;;13.03;11.93;;;23.00;76.70;;;;;;5086677;28;20475;-53
2021/03/29 12:29:20;;;;;;;12.00;11.50;;;23.00;77.30;;;;;;5091736;27;20460;-53
2021/03/29 12:31:48;;;;;;;13.13;12.53;;;23.00;77.70;;;;;;5099177;27;20855;-51
2021/03/29 12:34:18;;;;;;;13.10;12.50;;;23.00;78.10;;;;;;5087991;27;21271;-51
2021/03/29 12:36:49;;;;;;;13.57;12.60;;;23.10;78.60;;;;;;5066160;28;20446;-51
2021/03/29 12:39:20;;;;;;;12.83;12.20;;;23.10;78.90;;;;;;5085357;28;20453;-53
2021/03/29 12:41:54;;;;;;;12.13;11.43;;;23.10;79.20;;;;;;5088692;27;20446;-51
2021/03/29 12:44:22;;;;;;;12.73;12.13;;;23.10;79.40;;;;;;5073831;28;20502;-52
2021/03/29 12:46:53;;;;;;;12.67;11.97;;;23.10;79.60;;;;;;5066018;28;20476;-52